Time;durP1;ratioP1;P1;durP2;ratioP2;P2;SDS_P1;SDS_P2;PMS_P1;PMS_P2;Temp;Humidity;BMP_temperature;BMP_pressure;BME280_temperature;BME280_humidity;BME280_pressure;Samples;Min_cycle;Max_cycle;Signal;HPM_P1;HPM_P2
2022/11/21 00:00:42;;;;;;;;;25.75;23.00;;;;;;;;4976751;28;51018;-45
2022/11/21 00:03:26;;;;;;;;;24.50;21.75;;;;;;;;4976554;28;51125;-45
2022/11/21 00:06:11;;;;;;;;;21.00;20.75;;;;;;;;4976295;28;51133;-46
2022/11/21 00:08:56;;;;;;;;;22.25;19.50;;;;;;;;4976386;28;51512;-45
2022/11/21 00:11:40;;;;;;;;;21.00;20.25;;;;;;;;4976341;28;51043;-45
2022/11/21 00:14:24;;;;;;;;;23.50;21.25;;;;;;;;4976752;28;51067;-45
2022/11/21 00:17:09;;;;;;;;;20.50;18.25;;;;;;;;4976021;28;51447;-44
2022/11/21 00:19:53;;;;;;;;;23.00;21.00;;;;;;;;4976389;28;51208;-47
2022/11/21 00:22:38;;;;;;;;;22.00;19.25;;;;;;;;4976464;28;51077;-44
2022/11/21 00:25:22;;;;;;;;;19.75;17.50;;;;;;;;4976388;28;51204;-42
2022/11/21 00:28:07;;;;;;;;;21.00;18.25;;;;;;;;4975981;28;51469;-44
2022/11/21 00:30:51;;;;;;;;;22.00;18.75;;;;;;;;4976276;28;51137;-46
2022/11/21 00:33:37;;;;;;;;;23.00;19.75;;;;;;;;4976411;28;51374;-45
2022/11/21 00:36:22;;;;;;;;;25.25;18.00;;;;;;;;4975955;28;51139;-43
2022/11/21 00:39:07;;;;;;;;;24.75;20.50;;;;;;;;4976344;28;51036;-43
2022/11/21 00:41:51;;;;;;;;;28.75;19.00;;;;;;;;4976722;28;51424;-42
2022/11/21 00:44:36;;;;;;;;;23.25;18.50;;;;;;;;4979539;28;51168;-48
2022/11/21 00:47:20;;;;;;;;;18.25;18.00;;;;;;;;4979020;28;51113;-45
2022/11/21 00:50:05;;;;;;;;;15.00;14.25;;;;;;;;4979569;28;51087;-44
2022/11/21 00:52:49;;;;;;;;;24.00;21.00;;;;;;;;4979507;28;51284;-43
2022/11/21 00:55:35;;;;;;;;;20.75;16.75;;;;;;;;4979106;28;51267;-45
2022/11/21 00:58:20;;;;;;;;;19.00;16.75;;;;;;;;5019187;28;51110;-45
2022/11/21 01:01:06;;;;;;;;;24.50;20.00;;;;;;;;5061678;28;51145;-44
2022/11/21 01:03:50;;;;;;;;;20.25;18.00;;;;;;;;5062185;28;51094;-42
2022/11/21 01:06:38;;;;;;;;;17.50;16.75;;;;;;;;5061689;28;51417;-44
2022/11/21 01:09:22;;;;;;;;;20.75;16.00;;;;;;;;5061651;28;51139;-44
2022/11/21 01:12:07;;;;;;;;;20.50;19.75;;;;;;;;5061610;28;51106;-43
2022/11/21 01:14:51;;;;;;;;;20.75;18.25;;;;;;;;5040665;28;51150;-43
2022/11/21 01:17:36;;;;;;;;;28.50;21.75;;;;;;;;5002181;28;51451;-42
2022/11/21 01:20:20;;;;;;;;;16.00;16.00;;;;;;;;5045244;28;51113;-44
2022/11/21 01:23:05;;;;;;;;;17.50;17.00;;;;;;;;5061778;28;51401;-41
2022/11/21 01:25:49;;;;;;;;;21.50;17.25;;;;;;;;5061477;28;51007;-42
2022/11/21 01:28:33;;;;;;;;;19.25;16.00;;;;;;;;5061792;28;51506;-44
2022/11/21 01:31:22;;;;;;;;;22.75;16.25;;;;;;;;5061303;28;51240;-46
2022/11/21 01:34:06;;;;;;;;;19.75;18.50;;;;;;;;5061375;28;51165;-43
2022/11/21 01:36:51;;;;;;;;;22.25;17.25;;;;;;;;5061375;28;51061;-44
2022/11/21 01:39:35;;;;;;;;;19.25;15.50;;;;;;;;5061493;28;51019;-47
2022/11/21 01:42:20;;;;;;;;;23.75;16.75;;;;;;;;5061041;28;51110;-44
2022/11/21 01:45:24;;;;;;;;;10.25;6.75;;;;;;;;5043717;28;51102;-47
2022/11/21 01:48:08;;;;;;;;;16.00;15.50;;;;;;;;5061104;28;51227;-44
2022/11/21 01:50:54;;;;;;;;;26.50;20.75;;;;;;;;5060903;28;51181;-44
2022/11/21 01:53:39;;;;;;;;;21.75;17.75;;;;;;;;5060887;28;51064;-45
2022/11/21 01:56:24;;;;;;;;;18.25;15.75;;;;;;;;5060619;28;51486;-44
2022/11/21 01:59:10;;;;;;;;;21.00;20.00;;;;;;;;5059901;28;51164;-42
2022/11/21 02:01:54;;;;;;;;;15.50;13.50;;;;;;;;5061022;28;51306;-43
2022/11/21 02:04:41;;;;;;;;;17.75;16.25;;;;;;;;5060956;28;51099;-48
2022/11/21 02:07:25;;;;;;;;;19.50;17.75;;;;;;;;5060617;28;51071;-43
2022/11/21 02:10:11;;;;;;;;;23.25;19.25;;;;;;;;5060567;28;51164;-44
2022/11/21 02:12:56;;;;;;;;;19.75;17.00;;;;;;;;5060618;28;51028;-44
2022/11/21 02:15:41;;;;;;;;;20.50;19.00;;;;;;;;5060245;28;51126;-43
2022/11/21 02:18:25;;;;;;;;;20.75;17.25;;;;;;;;5060617;28;51059;-44
2022/11/21 02:21:19;;;;;;;;;21.25;20.00;;;;;;;;5060170;28;51134;-42
2022/11/21 02:24:11;;;;;;;;;26.00;20.00;;;;;;;;5060589;28;51327;-44
2022/11/21 02:26:56;;;;;;;;;19.00;15.50;;;;;;;;5060378;28;51120;-44
2022/11/21 02:29:40;;;;;;;;;27.00;21.00;;;;;;;;5060381;28;51176;-43
2022/11/21 02:32:30;;;;;;;;;25.25;18.25;;;;;;;;5060065;28;51525;-44
2022/11/21 02:35:16;;;;;;;;;22.50;18.75;;;;;;;;5024686;28;51463;-45
2022/11/21 02:38:02;;;;;;;;;23.75;18.50;;;;;;;;4977894;28;51100;-46
2022/11/21 02:41:06;;;;;;;;;25.50;20.25;;;;;;;;4977400;28;51108;-43
2022/11/21 02:43:57;;;;;;;;;19.50;17.75;;;;;;;;4978002;28;51098;-45
2022/11/21 02:46:49;;;;;;;;;26.50;20.25;;;;;;;;5015037;28;51125;-42
2022/11/21 02:49:53;;;;;;;;;23.50;23.25;;;;;;;;5059825;28;51258;-42
2022/11/21 02:52:37;;;;;;;;;27.75;19.75;;;;;;;;5059989;28;51167;-43
2022/11/21 02:55:22;;;;;;;;;22.25;19.00;;;;;;;;5060117;28;51108;-45
2022/11/21 02:58:06;;;;;;;;;24.50;20.00;;;;;;;;5087780;27;51098;-46
2022/11/21 03:00:51;;;;;;;;;20.25;19.50;;;;;;;;5059535;28;51589;-44
2022/11/21 03:03:35;;;;;;;;;22.00;18.00;;;;;;;;5059835;28;51123;-48
2022/11/21 03:06:20;;;;;;;;;22.00;20.75;;;;;;;;5059217;28;51027;-43
2022/11/21 03:09:04;;;;;;;;;27.25;20.75;;;;;;;;5059683;28;51106;-43
2022/11/21 03:11:49;;;;;;;;;23.00;19.50;;;;;;;;5044835;28;51559;-43
2022/11/21 03:14:34;;;;;;;;;24.00;19.00;;;;;;;;5059666;28;51564;-44
2022/11/21 03:17:18;;;;;;;;;22.00;20.00;;;;;;;;5052896;28;51101;-42
2022/11/21 03:20:02;;;;;;;;;22.50;20.00;;;;;;;;5059730;28;51087;-44
2022/11/21 03:22:47;;;;;;;;;21.00;19.00;;;;;;;;4983659;28;51192;-41
2022/11/21 03:25:31;;;;;;;;;22.75;21.00;;;;;;;;4977105;28;51175;-42
2022/11/21 03:28:16;;;;;;;;;24.50;23.50;;;;;;;;4977308;28;51072;-44
2022/11/21 03:31:00;;;;;;;;;23.50;21.50;;;;;;;;4976561;28;51117;-44
2022/11/21 03:33:44;;;;;;;;;29.75;24.50;;;;;;;;4977238;28;51157;-47
2022/11/21 03:36:28;;;;;;;;;27.00;20.75;;;;;;;;4976790;28;51401;-43
2022/11/21 03:39:13;;;;;;;;;24.25;21.75;;;;;;;;5031146;28;51117;-43
2022/11/21 03:41:57;;;;;;;;;21.00;18.75;;;;;;;;5058871;28;51091;-46
2022/11/21 03:44:42;;;;;;;;;25.00;18.75;;;;;;;;5059507;28;51189;-45
2022/11/21 03:47:26;;;;;;;;;30.50;26.75;;;;;;;;5059149;28;51511;-45
2022/11/21 03:50:13;;;;;;;;;27.00;24.50;;;;;;;;5059164;28;52163;-42
2022/11/21 03:52:58;;;;;;;;;33.25;24.00;;;;;;;;5058962;28;51111;-41
2022/11/21 03:55:42;;;;;;;;;31.75;26.25;;;;;;;;5059260;28;51094;-46
2022/11/21 03:58:27;;;;;;;;;32.00;28.00;;;;;;;;5059614;28;51039;-43
2022/11/21 04:01:14;;;;;;;;;32.25;27.25;;;;;;;;5058852;28;51590;-45
2022/11/21 04:03:59;;;;;;;;;35.00;29.00;;;;;;;;5058941;28;51161;-45
2022/11/21 04:06:43;;;;;;;;;34.50;30.00;;;;;;;;5059109;28;51082;-45
2022/11/21 04:09:28;;;;;;;;;33.00;28.75;;;;;;;;5059292;28;51058;-46
2022/11/21 04:12:12;;;;;;;;;34.50;29.75;;;;;;;;5058992;28;51100;-45
2022/11/21 04:14:57;;;;;;;;;38.00;32.25;;;;;;;;5058987;28;51289;-42
2022/11/21 04:17:41;;;;;;;;;36.50;30.25;;;;;;;;5060903;28;51580;-43
2022/11/21 04:20:26;;;;;;;;;30.25;29.00;;;;;;;;5062681;28;51110;-43
2022/11/21 04:23:10;;;;;;;;;34.50;30.00;;;;;;;;5062785;28;50996;-43
2022/11/21 04:25:54;;;;;;;;;42.25;30.50;;;;;;;;5062438;28;51141;-43
2022/11/21 04:28:39;;;;;;;;;35.75;29.25;;;;;;;;5062802;28;51588;-42
2022/11/21 04:31:23;;;;;;;;;31.50;30.50;;;;;;;;5062371;28;51077;-44
2022/11/21 04:34:08;;;;;;;;;36.75;32.00;;;;;;;;5062663;28;51024;-42
2022/11/21 04:36:52;;;;;;;;;37.50;32.50;;;;;;;;5062420;28;51401;-45
2022/11/21 04:39:36;;;;;;;;;36.25;28.75;;;;;;;;5062418;28;50952;-42
2022/11/21 04:42:20;;;;;;;;;41.25;32.50;;;;;;;;5062339;28;51664;-46
2022/11/21 04:45:06;;;;;;;;;45.25;33.50;;;;;;;;5061945;28;51125;-46
2022/11/21 04:47:50;;;;;;;;;45.00;36.50;;;;;;;;5062722;28;51052;-43
2022/11/21 04:50:34;;;;;;;;;39.50;34.25;;;;;;;;5062151;28;51054;-44
2022/11/21 04:53:19;;;;;;;;;37.50;33.25;;;;;;;;5061927;28;51681;-46
2022/11/21 04:56:04;;;;;;;;;38.00;32.75;;;;;;;;5062082;28;51173;-42
2022/11/21 04:58:50;;;;;;;;;41.00;32.00;;;;;;;;5033956;28;51162;-43
2022/11/21 05:01:36;;;;;;;;;36.75;31.50;;;;;;;;5089653;27;51499;-43
2022/11/21 05:04:20;;;;;;;;;33.00;30.25;;;;;;;;5061629;28;51090;-41
2022/11/21 05:07:04;;;;;;;;;44.50;34.00;;;;;;;;5061941;28;51276;-41
2022/11/21 05:09:49;;;;;;;;;33.75;30.25;;;;;;;;5061706;28;51155;-46
2022/11/21 05:15:36;;;;;;;;;32.25;28.75;;;;;;;;5061709;28;51560;-41
2022/11/21 05:18:21;;;;;;;;;44.75;35.25;;;;;;;;5061301;28;51269;-43
2022/11/21 05:21:05;;;;;;;;;41.75;32.50;;;;;;;;5061550;28;51013;-44
2022/11/21 05:23:50;;;;;;;;;41.00;34.50;;;;;;;;5062186;28;51122;-46
2022/11/21 05:26:34;;;;;;;;;40.00;30.75;;;;;;;;5057013;28;51028;-42
2022/11/21 05:29:19;;;;;;;;;44.50;32.75;;;;;;;;5060868;28;51117;-44
2022/11/21 05:32:03;;;;;;;;;46.50;36.00;;;;;;;;5061706;28;51031;-44
2022/11/21 05:34:48;;;;;;;;;46.50;35.50;;;;;;;;5024637;28;51005;-44
2022/11/21 05:37:32;;;;;;;;;42.50;33.25;;;;;;;;5061585;28;51078;-44
2022/11/21 05:40:16;;;;;;;;;45.00;36.50;;;;;;;;4993525;28;51061;-46
2022/11/21 05:43:46;;;;;;;;;44.00;34.25;;;;;;;;4978674;28;51160;-46
2022/11/21 05:46:05;;;;;;;;;47.25;38.50;;;;;;;;4974861;28;51207;-45
2022/11/21 05:48:50;;;;;;;;;47.50;36.50;;;;;;;;4995860;28;51192;-46
2022/11/21 05:51:35;;;;;;;;;49.25;36.25;;;;;;;;5060524;28;51046;-47
2022/11/21 05:54:19;;;;;;;;;45.75;39.25;;;;;;;;5061141;28;51088;-48
2022/11/21 05:57:03;;;;;;;;;46.75;35.75;;;;;;;;5061105;28;51230;-46
2022/11/21 05:59:48;;;;;;;;;46.50;37.50;;;;;;;;5046778;28;51149;-43
2022/11/21 06:05:35;;;;;;;;;48.75;39.25;;;;;;;;4977909;28;51141;-46
2022/11/21 06:08:19;;;;;;;;;46.25;36.25;;;;;;;;4978366;28;51604;-47
2022/11/21 06:11:05;;;;;;;;;47.00;36.25;;;;;;;;4978057;28;51137;-42
2022/11/21 06:13:50;;;;;;;;;45.25;37.25;;;;;;;;4978399;28;51082;-46
2022/11/21 06:16:35;;;;;;;;;48.50;38.00;;;;;;;;5004821;27;51088;-45
2022/11/21 06:19:19;;;;;;;;;48.75;38.50;;;;;;;;4978000;28;51168;-44
2022/11/21 06:22:04;;;;;;;;;45.75;38.00;;;;;;;;4992779;28;51135;-42
2022/11/21 06:24:48;;;;;;;;;49.75;38.25;;;;;;;;5052885;28;51275;-46
2022/11/21 06:27:33;;;;;;;;;54.25;41.75;;;;;;;;5060538;28;51106;-43
2022/11/21 06:30:17;;;;;;;;;56.25;42.00;;;;;;;;5060186;28;51574;-43
2022/11/21 06:33:02;;;;;;;;;59.50;42.50;;;;;;;;5060220;28;51589;-45
2022/11/21 06:35:47;;;;;;;;;52.25;43.25;;;;;;;;5060005;28;51598;-45
2022/11/21 06:38:31;;;;;;;;;53.50;42.50;;;;;;;;5060457;28;51006;-44
2022/11/21 06:41:17;;;;;;;;;55.25;45.50;;;;;;;;5025201;28;51397;-46
2022/11/21 06:44:02;;;;;;;;;53.75;44.00;;;;;;;;5059946;28;51068;-44
2022/11/21 06:46:46;;;;;;;;;58.75;45.25;;;;;;;;5059973;28;51204;-45
2022/11/21 06:49:30;;;;;;;;;52.75;42.25;;;;;;;;4993224;28;51172;-45
2022/11/21 06:52:15;;;;;;;;;53.25;42.50;;;;;;;;4977850;28;51051;-44
2022/11/21 06:55:00;;;;;;;;;56.75;44.25;;;;;;;;4977174;28;51062;-48
2022/11/21 06:57:44;;;;;;;;;54.25;42.75;;;;;;;;4977510;28;51561;-46
2022/11/21 07:00:28;;;;;;;;;64.00;50.75;;;;;;;;4977150;28;51060;-42
2022/11/21 07:03:13;;;;;;;;;54.50;43.00;;;;;;;;4977709;28;51014;-42
2022/11/21 07:06:00;;;;;;;;;60.00;46.00;;;;;;;;4977011;28;51081;-46
2022/11/21 07:08:45;;;;;;;;;59.25;45.00;;;;;;;;4977228;28;50992;-46
2022/11/21 07:11:29;;;;;;;;;54.50;43.25;;;;;;;;4977441;28;51604;-45
2022/11/21 07:14:13;;;;;;;;;56.75;44.75;;;;;;;;4990102;28;51109;-42
2022/11/21 07:16:58;;;;;;;;;55.75;43.50;;;;;;;;5059615;28;51106;-43
2022/11/21 07:19:42;;;;;;;;;56.75;45.75;;;;;;;;5059188;28;51042;-44
2022/11/21 07:22:27;;;;;;;;;51.25;41.50;;;;;;;;5059690;28;51648;-44
2022/11/21 07:25:12;;;;;;;;;54.25;44.50;;;;;;;;5059252;28;51051;-42
2022/11/21 07:28:00;;;;;;;;;50.50;41.00;;;;;;;;5059677;28;51085;-43
2022/11/21 07:30:45;;;;;;;;;47.75;39.25;;;;;;;;5059242;28;51116;-46
2022/11/21 07:33:29;;;;;;;;;47.25;38.50;;;;;;;;5059278;28;51218;-47
2022/11/21 07:36:13;;;;;;;;;51.75;41.00;;;;;;;;5059567;28;51556;-42
2022/11/21 07:38:58;;;;;;;;;43.50;34.50;;;;;;;;5025198;28;51913;-44
2022/11/21 07:41:42;;;;;;;;;43.25;34.75;;;;;;;;5058494;28;51139;-42
2022/11/21 07:44:27;;;;;;;;;29.75;28.25;;;;;;;;5058040;28;51148;-48
2022/11/21 07:47:11;;;;;;;;;34.00;27.00;;;;;;;;5059087;28;51471;-46
2022/11/21 07:49:56;;;;;;;;;27.00;25.75;;;;;;;;5059057;28;51068;-43
2022/11/21 07:52:40;;;;;;;;;27.75;24.00;;;;;;;;5063479;28;51157;-45
2022/11/21 07:55:25;;;;;;;;;32.00;28.50;;;;;;;;4982679;28;51125;-43
2022/11/21 07:58:10;;;;;;;;;28.25;23.25;;;;;;;;4980119;28;51196;-46
2022/11/21 08:00:56;;;;;;;;;32.00;24.75;;;;;;;;4980172;28;51028;-43
2022/11/21 08:03:40;;;;;;;;;24.75;21.50;;;;;;;;4979430;28;51114;-47
2022/11/21 08:06:24;;;;;;;;;26.75;23.75;;;;;;;;4980071;28;51168;-48
2022/11/21 08:09:08;;;;;;;;;22.00;20.50;;;;;;;;4979791;28;51101;-45
2022/11/21 08:11:53;;;;;;;;;26.50;20.00;;;;;;;;4979853;28;51125;-43
2022/11/21 08:14:37;;;;;;;;;28.75;25.00;;;;;;;;4979517;28;51179;-45
2022/11/21 08:17:24;;;;;;;;;17.75;16.75;;;;;;;;4980144;28;51024;-47
2022/11/21 08:20:08;;;;;;;;;20.50;19.25;;;;;;;;5022424;28;51036;-45
2022/11/21 08:22:53;;;;;;;;;22.00;18.25;;;;;;;;5062523;28;51342;-44
2022/11/21 08:25:38;;;;;;;;;20.50;19.25;;;;;;;;5062823;28;51124;-45
2022/11/21 08:28:22;;;;;;;;;25.25;21.75;;;;;;;;5062334;28;51209;-47
2022/11/21 08:31:06;;;;;;;;;23.25;17.75;;;;;;;;5062474;28;51035;-45
2022/11/21 08:33:54;;;;;;;;;23.00;18.50;;;;;;;;5062139;28;51137;-47
2022/11/21 08:36:38;;;;;;;;;20.50;17.50;;;;;;;;5061710;28;51393;-45
2022/11/21 08:39:24;;;;;;;;;15.50;15.00;;;;;;;;5061602;28;51050;-46
2022/11/21 08:42:09;;;;;;;;;18.50;16.25;;;;;;;;5062494;28;51077;-45
2022/11/21 08:44:53;;;;;;;;;18.50;15.00;;;;;;;;5062217;28;51428;-45
2022/11/21 08:47:38;;;;;;;;;17.25;15.50;;;;;;;;5021154;28;50992;-43
2022/11/21 08:50:23;;;;;;;;;18.00;15.00;;;;;;;;4979375;28;51195;-43
2022/11/21 08:53:07;;;;;;;;;19.25;17.00;;;;;;;;4979268;28;51052;-43
2022/11/21 08:55:53;;;;;;;;;19.00;16.75;;;;;;;;4979468;28;51000;-45
2022/11/21 08:58:37;;;;;;;;;19.25;17.75;;;;;;;;4979178;28;51154;-44
2022/11/21 09:01:22;;;;;;;;;18.25;14.00;;;;;;;;4979050;28;51159;-46
